createdAt,value
2018-07-23T00:00:11.464Z,11.67
2018-07-23T00:02:38.841Z,13.87
2018-07-23T00:05:06.177Z,13.90
2018-07-23T00:07:33.476Z,13.60
2018-07-23T00:10:00.795Z,12.43
2018-07-23T00:12:28.137Z,13.47
2018-07-23T00:14:55.528Z,12.07
2018-07-23T00:17:22.822Z,12.50
2018-07-23T00:19:50.161Z,12.17
2018-07-23T00:22:17.520Z,11.90
2018-07-23T00:24:45.204Z,12.23
2018-07-23T00:27:12.498Z,11.83
2018-07-23T00:29:39.968Z,13.27
2018-07-23T00:32:07.294Z,11.47
2018-07-23T00:34:34.636Z,11.53
2018-07-23T00:37:02.432Z,12.33
2018-07-23T00:39:29.745Z,11.70
2018-07-23T00:41:57.925Z,11.23
2018-07-23T00:44:25.314Z,12.83
2018-07-23T00:46:52.653Z,13.40
2018-07-23T00:49:19.983Z,13.03
2018-07-23T00:51:47.291Z,13.03
2018-07-23T00:54:14.606Z,13.17
2018-07-23T00:56:41.984Z,13.13
2018-07-23T00:59:09.300Z,12.67
2018-07-23T01:01:36.659Z,14.37
2018-07-23T01:04:04.019Z,14.30
2018-07-23T01:06:31.427Z,13.10
2018-07-23T01:08:58.754Z,13.20
2018-07-23T01:11:26.066Z,12.17
2018-07-23T01:13:53.472Z,13.63
2018-07-23T01:16:20.751Z,13.60
2018-07-23T01:18:48.040Z,12.33
2018-07-23T01:21:15.503Z,12.77
2018-07-23T01:23:42.852Z,12.37
2018-07-23T01:26:10.216Z,13.00
2018-07-23T01:28:37.548Z,14.47
2018-07-23T01:31:04.929Z,12.40
2018-07-23T01:33:32.239Z,12.17
2018-07-23T01:35:59.595Z,12.27
2018-07-23T01:38:26.924Z,12.90
2018-07-23T01:40:54.237Z,12.97
2018-07-23T01:43:21.574Z,14.00
2018-07-23T01:45:48.964Z,13.57
2018-07-23T01:48:16.288Z,12.63
2018-07-23T01:50:43.685Z,12.30
2018-07-23T01:53:10.999Z,12.60
2018-07-23T01:55:38.339Z,13.00
2018-07-23T01:58:05.687Z,13.50
2018-07-23T02:00:32.996Z,12.90
2018-07-23T02:03:00.610Z,14.23
2018-07-23T02:05:27.886Z,12.63
2018-07-23T02:07:56.075Z,13.80
2018-07-23T02:10:23.431Z,13.03
2018-07-23T02:12:50.738Z,14.10
2018-07-23T02:15:18.068Z,13.90
2018-07-23T02:17:45.370Z,13.10
2018-07-23T02:20:13.437Z,13.17
2018-07-23T02:22:40.801Z,13.03
2018-07-23T02:25:08.130Z,14.40
2018-07-23T02:27:35.502Z,14.47
2018-07-23T02:30:02.973Z,12.50
2018-07-23T02:32:31.428Z,13.27
2018-07-23T02:34:58.830Z,13.70
2018-07-23T02:37:26.132Z,12.10
2018-07-23T02:39:53.475Z,13.50
2018-07-23T02:42:20.820Z,12.73
2018-07-23T02:44:48.239Z,14.00
2018-07-23T02:47:15.537Z,12.23
2018-07-23T02:49:42.849Z,12.60
2018-07-23T02:52:10.945Z,12.37
2018-07-23T02:54:38.257Z,12.57
2018-07-23T02:57:05.563Z,13.30
2018-07-23T02:59:32.900Z,12.77
2018-07-23T03:02:00.247Z,12.93
2018-07-23T03:04:27.558Z,13.20
2018-07-23T03:06:54.975Z,12.50
2018-07-23T03:09:23.478Z,12.30
2018-07-23T03:11:50.788Z,12.90
2018-07-23T03:14:18.113Z,13.20
2018-07-23T03:16:45.465Z,12.27
2018-07-23T03:19:12.776Z,13.47
2018-07-23T03:21:40.159Z,12.80
2018-07-23T03:24:07.459Z,14.50
2018-07-23T03:26:34.791Z,13.20
2018-07-23T03:29:02.137Z,13.70
2018-07-23T03:31:29.492Z,13.97
2018-07-23T03:33:56.804Z,13.70
2018-07-23T03:36:24.134Z,14.57
2018-07-23T03:38:51.456Z,13.50
2018-07-23T03:41:18.797Z,15.07
2018-07-23T03:43:46.118Z,15.23
2018-07-23T03:46:13.458Z,14.33
2018-07-23T03:48:40.826Z,13.30
2018-07-23T03:51:08.214Z,13.47
2018-07-23T03:53:35.599Z,14.23
2018-07-23T03:56:02.899Z,14.63
2018-07-23T03:58:30.308Z,14.20
2018-07-23T04:00:57.712Z,14.73
2018-07-23T04:03:25.082Z,14.40
2018-07-23T04:05:52.387Z,14.33
2018-07-23T04:08:20.437Z,13.33
2018-07-23T04:10:47.857Z,13.97
2018-07-23T04:13:15.157Z,13.73
2018-07-23T04:15:42.435Z,14.03
2018-07-23T04:18:09.729Z,14.27
2018-07-23T04:20:37.140Z,14.30
2018-07-23T04:23:05.487Z,14.10
2018-07-23T04:25:33.002Z,13.63
2018-07-23T04:28:00.696Z,13.33
2018-07-23T04:30:28.265Z,13.00
2018-07-23T04:32:55.918Z,13.00
2018-07-23T04:35:23.296Z,15.20
2018-07-23T04:37:50.693Z,13.67
2018-07-23T04:40:18.008Z,13.37
2018-07-23T04:42:45.382Z,13.57
2018-07-23T04:45:12.981Z,13.13
2018-07-23T04:47:40.671Z,13.67
2018-07-23T04:50:08.186Z,12.73
2018-07-23T04:52:35.556Z,13.97
2018-07-23T04:55:03.534Z,14.90
2018-07-23T04:57:31.126Z,14.70
2018-07-23T04:59:58.705Z,14.73
2018-07-23T05:02:25.993Z,14.27
2018-07-23T05:04:53.348Z,13.63
2018-07-23T05:07:20.744Z,17.03
2018-07-23T05:09:48.835Z,13.30
2018-07-23T05:12:16.167Z,13.80
2018-07-23T05:14:43.547Z,14.90
2018-07-23T05:17:11.090Z,13.27
2018-07-23T05:19:39.350Z,12.40
2018-07-23T05:22:06.669Z,13.40
2018-07-23T05:24:34.083Z,13.10
2018-07-23T05:27:01.408Z,12.67
2018-07-23T05:29:28.832Z,11.70
2018-07-23T05:31:56.286Z,12.43
2018-07-23T05:34:23.620Z,13.33
2018-07-23T05:36:51.321Z,13.00
2018-07-23T05:39:18.630Z,12.40
2018-07-23T05:41:45.946Z,12.17
2018-07-23T05:44:13.856Z,11.70
2018-07-23T05:46:41.243Z,12.50
2018-07-23T05:49:08.613Z,13.27
2018-07-23T05:51:35.938Z,13.27
2018-07-23T05:54:03.340Z,13.47
2018-07-23T05:56:30.694Z,14.50
2018-07-23T05:58:58.099Z,12.97
2018-07-23T06:01:25.407Z,12.13
2018-07-23T06:03:52.696Z,13.27
2018-07-23T06:06:20.081Z,13.10
2018-07-23T06:08:47.367Z,14.50
2018-07-23T06:11:14.644Z,13.67
2018-07-23T06:13:41.960Z,13.07
2018-07-23T06:16:09.408Z,14.53
2018-07-23T06:18:37.757Z,12.63
2018-07-23T06:21:05.380Z,14.87
2018-07-23T06:23:32.773Z,15.40
2018-07-23T06:26:00.114Z,12.80
2018-07-23T06:28:27.585Z,14.10
2018-07-23T06:30:55.126Z,14.60
2018-07-23T06:33:22.429Z,13.03
2018-07-23T06:35:49.709Z,14.17
2018-07-23T06:38:17.076Z,15.10
2018-07-23T06:40:44.422Z,13.17
2018-07-23T06:43:11.819Z,15.07
2018-07-23T06:45:41.002Z,13.57
2018-07-23T06:48:08.356Z,13.50
2018-07-23T06:50:35.892Z,15.50
2018-07-23T06:53:03.221Z,14.87
2018-07-23T06:55:30.589Z,13.60
2018-07-23T06:57:57.937Z,13.93
2018-07-23T07:00:25.327Z,13.13
2018-07-23T07:02:52.827Z,13.10
2018-07-23T07:05:21.277Z,14.43
2018-07-23T07:07:48.637Z,16.10
2018-07-23T07:10:16.052Z,17.80
2018-07-23T07:12:43.373Z,16.60
2018-07-23T07:15:10.648Z,14.37
2018-07-23T07:17:38.023Z,13.87
2018-07-23T07:20:05.426Z,14.07
2018-07-23T07:22:32.818Z,15.00
2018-07-23T07:25:00.132Z,18.47
2018-07-23T07:27:27.461Z,17.60
2018-07-23T07:29:54.838Z,16.07
2018-07-23T07:32:22.219Z,18.33
2018-07-23T07:34:49.582Z,18.37
2018-07-23T07:37:16.897Z,15.10
2018-07-23T07:39:44.202Z,15.47
2018-07-23T07:42:11.556Z,16.70
2018-07-23T07:44:38.891Z,17.90
2018-07-23T07:47:06.205Z,16.50
2018-07-23T07:49:33.807Z,16.50
2018-07-23T07:52:02.020Z,17.53
2018-07-23T07:54:29.349Z,16.70
2018-07-23T07:56:56.730Z,15.03
2018-07-23T07:59:24.063Z,15.23
2018-07-23T08:01:51.542Z,14.23
2018-07-23T08:04:18.970Z,15.07
2018-07-23T08:06:46.259Z,12.73
2018-07-23T08:09:13.659Z,16.13
2018-07-23T08:11:41.012Z,18.53
2018-07-23T08:14:09.201Z,19.70
2018-07-23T08:16:37.452Z,20.00
2018-07-23T08:19:06.952Z,17.63
2018-07-23T08:21:34.301Z,18.07
2018-07-23T08:24:01.657Z,15.77
2018-07-23T08:26:28.978Z,17.60
2018-07-23T08:28:56.294Z,16.30
2018-07-23T08:31:24.028Z,16.40
2018-07-23T08:33:51.338Z,17.63
2018-07-23T08:36:18.655Z,19.37
2018-07-23T08:38:47.034Z,17.00
2018-07-23T08:41:14.333Z,17.20
2018-07-23T08:43:41.626Z,19.40
2018-07-23T08:46:09.922Z,16.10
2018-07-23T08:48:37.259Z,15.83
2018-07-23T08:51:04.634Z,21.37
2018-07-23T08:53:31.956Z,16.07
2018-07-23T08:56:00.199Z,17.13
2018-07-23T08:58:27.878Z,14.97
2018-07-23T09:00:55.181Z,15.47
2018-07-23T09:03:26.480Z,14.60
2018-07-23T09:05:53.826Z,16.40
2018-07-23T09:08:21.229Z,18.30
2018-07-23T09:10:49.124Z,15.60
2018-07-23T09:13:16.456Z,17.10
2018-07-23T09:15:43.753Z,15.70
2018-07-23T09:18:11.172Z,16.23
2018-07-23T09:20:38.489Z,16.87
2018-07-23T09:23:05.917Z,16.17
2018-07-23T09:25:38.553Z,14.53
2018-07-23T09:28:05.904Z,13.10
2018-07-23T09:30:54.093Z,15.47
2018-07-23T09:33:22.663Z,14.90
2018-07-23T09:35:50.701Z,15.30
2018-07-23T09:38:18.138Z,18.20
2018-07-23T09:40:45.450Z,14.13
2018-07-23T09:43:12.831Z,16.20
2018-07-23T09:45:40.170Z,14.80
2018-07-23T09:48:07.501Z,15.30
2018-07-23T09:50:34.849Z,14.97
2018-07-23T09:53:03.050Z,13.23
2018-07-23T09:55:30.431Z,14.40
2018-07-23T09:57:57.763Z,18.87
2018-07-23T10:00:30.447Z,14.60
2018-07-23T10:02:57.781Z,13.50
2018-07-23T10:05:25.127Z,11.77
2018-07-23T10:07:52.542Z,11.90
2018-07-23T10:10:19.885Z,12.27
2018-07-23T10:12:47.217Z,10.47
2018-07-23T10:15:14.658Z,12.13
2018-07-23T10:17:43.876Z,11.67
2018-07-23T10:20:11.201Z,11.47
2018-07-23T10:22:38.547Z,12.17
2018-07-23T10:25:06.149Z,10.23
2018-07-23T10:27:33.511Z,9.33
2018-07-23T10:30:00.889Z,9.83
2018-07-23T10:32:28.210Z,10.70
2018-07-23T10:34:55.609Z,9.90
2018-07-23T10:37:23.057Z,11.57
2018-07-23T10:39:50.404Z,9.50
2018-07-23T10:42:17.739Z,10.23
2018-07-23T10:44:45.138Z,9.90
2018-07-23T10:47:12.467Z,10.63
2018-07-23T10:49:39.857Z,10.50
2018-07-23T10:52:08.253Z,11.30
2018-07-23T10:54:35.608Z,9.97
2018-07-23T10:57:02.962Z,11.40
2018-07-23T10:59:30.346Z,10.17
2018-07-23T11:01:57.728Z,10.27
2018-07-23T11:04:28.995Z,10.33
2018-07-23T11:06:56.363Z,11.63
2018-07-23T11:09:25.598Z,10.97
2018-07-23T11:11:52.941Z,9.93
2018-07-23T11:14:20.300Z,9.80
2018-07-23T11:16:47.644Z,10.00
2018-07-23T11:19:15.036Z,10.53
2018-07-23T11:21:42.385Z,11.00
2018-07-23T11:24:09.709Z,10.50
2018-07-23T11:26:38.069Z,9.30
2018-07-23T11:29:06.171Z,10.43
2018-07-23T11:31:33.535Z,10.53
2018-07-23T11:34:00.879Z,10.27
2018-07-23T11:36:32.269Z,10.40
2018-07-23T11:38:59.641Z,10.70
2018-07-23T11:41:27.061Z,11.37
2018-07-23T11:43:54.363Z,11.40
2018-07-23T11:46:24.983Z,11.57
2018-07-23T11:48:49.048Z,10.80
2018-07-23T11:51:16.364Z,11.47
2018-07-23T11:53:43.793Z,11.17
2018-07-23T11:56:11.061Z,12.23
2018-07-23T11:58:38.483Z,11.00
2018-07-23T12:01:05.881Z,11.37
2018-07-23T12:03:33.206Z,11.30
2018-07-23T12:06:00.517Z,11.80
2018-07-23T12:08:27.865Z,11.60
2018-07-23T12:10:55.299Z,11.93
2018-07-23T12:13:22.664Z,10.97
2018-07-23T12:15:50.087Z,11.77
2018-07-23T12:18:17.403Z,11.77
2018-07-23T12:20:44.745Z,11.57
2018-07-23T12:23:12.068Z,12.80
2018-07-23T12:25:40.109Z,11.93
2018-07-23T12:28:07.492Z,12.13
2018-07-23T12:30:34.817Z,12.17
2018-07-23T12:33:02.152Z,12.47
2018-07-23T12:35:29.567Z,12.87
2018-07-23T12:37:56.868Z,11.87
2018-07-23T12:40:24.729Z,12.70
2018-07-23T12:42:52.275Z,11.43
2018-07-23T12:45:19.647Z,13.30
2018-07-23T12:47:47.005Z,11.80
2018-07-23T12:50:14.377Z,12.33
2018-07-23T12:52:41.798Z,12.00
2018-07-23T12:55:09.139Z,13.23
2018-07-23T12:57:36.504Z,12.70
2018-07-23T13:00:04.006Z,10.63
2018-07-23T13:02:31.364Z,12.50
2018-07-23T13:05:03.429Z,13.17
2018-07-23T13:07:31.653Z,11.97
2018-07-23T13:09:59.011Z,11.90
2018-07-23T13:12:27.221Z,12.13
2018-07-23T13:14:54.767Z,12.67
2018-07-23T13:17:23.062Z,12.37
2018-07-23T13:19:50.396Z,12.13
2018-07-23T13:22:17.740Z,12.70
2018-07-23T13:24:45.732Z,12.23
2018-07-23T13:27:13.032Z,12.07
2018-07-23T13:29:43.161Z,12.23
2018-07-23T13:32:10.979Z,12.73
2018-07-23T13:34:38.442Z,13.80
2018-07-23T13:37:05.797Z,12.20
2018-07-23T13:39:33.178Z,13.60
2018-07-23T13:42:02.272Z,13.43
2018-07-23T13:44:30.516Z,13.07
2018-07-23T13:46:57.816Z,12.37
2018-07-23T13:49:25.227Z,12.90
2018-07-23T13:51:52.557Z,14.00
2018-07-23T13:54:19.919Z,13.73
2018-07-23T13:56:47.529Z,14.53
2018-07-23T13:59:15.737Z,13.57
2018-07-23T14:01:43.068Z,14.20
2018-07-23T14:04:10.411Z,13.67
2018-07-23T14:06:38.630Z,14.03
2018-07-23T14:09:07.236Z,14.73
2018-07-23T14:11:34.632Z,13.60
2018-07-23T14:14:01.956Z,13.97
2018-07-23T14:16:29.314Z,14.07
2018-07-23T14:18:57.370Z,14.77
2018-07-23T14:21:24.738Z,14.00
2018-07-23T14:23:52.874Z,23.83
2018-07-23T14:26:23.154Z,14.40
2018-07-23T14:28:50.587Z,14.23
2018-07-23T14:31:17.928Z,14.03
2018-07-23T14:33:45.276Z,14.97
2018-07-23T14:36:14.403Z,14.50
2018-07-23T14:38:41.842Z,13.60
2018-07-23T14:41:09.134Z,14.10
2018-07-23T14:43:36.977Z,13.03
2018-07-23T14:46:04.381Z,13.43
2018-07-23T14:48:31.721Z,13.83
2018-07-23T14:50:58.992Z,14.40
2018-07-23T14:53:26.449Z,13.53
2018-07-23T14:55:55.601Z,13.43
2018-07-23T14:58:22.918Z,13.07
2018-07-23T15:00:50.230Z,13.10
2018-07-23T15:03:19.603Z,14.87
2018-07-23T15:05:46.918Z,13.17
2018-07-23T15:08:15.135Z,14.40
2018-07-23T15:10:43.403Z,13.07
2018-07-23T15:13:10.811Z,13.10
2018-07-23T15:15:38.189Z,12.67
2018-07-23T15:18:05.546Z,13.07
2018-07-23T15:20:33.025Z,15.80
2018-07-23T15:23:08.583Z,14.73
2018-07-23T15:25:35.926Z,12.63
2018-07-23T15:28:03.284Z,13.87
2018-07-23T15:30:30.616Z,13.40
2018-07-23T15:32:57.961Z,15.27
2018-07-23T15:35:26.304Z,14.77
2018-07-23T15:37:53.675Z,13.67
2018-07-23T15:40:24.611Z,14.13
2018-07-23T15:42:51.956Z,14.03
2018-07-23T15:45:19.359Z,13.50
2018-07-23T15:47:46.701Z,14.07
2018-07-23T15:50:14.011Z,14.13
2018-07-23T15:52:42.336Z,13.93
2018-07-23T15:55:09.660Z,12.93
2018-07-23T15:57:36.993Z,13.93
2018-07-23T16:00:04.868Z,14.40
2018-07-23T16:02:32.212Z,13.70
2018-07-23T16:05:02.311Z,14.87
2018-07-23T16:07:30.766Z,14.80
2018-07-23T16:09:58.160Z,13.07
2018-07-23T16:12:25.766Z,13.97
2018-07-23T16:14:53.073Z,14.40
2018-07-23T16:17:20.372Z,14.77
2018-07-23T16:19:47.723Z,14.50
2018-07-23T16:22:15.198Z,14.07
2018-07-23T16:24:44.475Z,15.00
2018-07-23T16:27:12.604Z,15.77
2018-07-23T16:29:40.010Z,15.70
2018-07-23T16:32:07.397Z,16.20
2018-07-23T16:34:34.741Z,15.93
2018-07-23T16:37:05.151Z,16.17
2018-07-23T16:39:32.493Z,15.00
2018-07-23T16:41:59.828Z,16.93
2018-07-23T16:44:27.570Z,15.00
2018-07-23T16:46:54.978Z,15.97
2018-07-23T16:49:22.275Z,15.93
2018-07-23T16:51:50.209Z,15.73
2018-07-23T16:54:17.590Z,15.30
2018-07-23T16:56:44.897Z,14.90
2018-07-23T16:59:12.218Z,14.77
2018-07-23T17:01:39.619Z,15.00
2018-07-23T17:04:06.984Z,14.53
2018-07-23T17:06:34.359Z,15.43
2018-07-23T17:09:01.701Z,14.07
2018-07-23T17:11:29.285Z,15.50
2018-07-23T17:13:56.753Z,14.10
2018-07-23T17:16:24.125Z,15.80
2018-07-23T17:18:51.504Z,15.40
2018-07-23T17:21:18.827Z,13.90
2018-07-23T17:23:46.151Z,15.13
2018-07-23T17:26:13.475Z,14.33
2018-07-23T17:28:41.235Z,14.43
2018-07-23T17:31:08.873Z,14.70
2018-07-23T17:33:36.202Z,14.50
2018-07-23T17:36:03.649Z,13.97
2018-07-23T17:38:31.029Z,12.97
2018-07-23T17:40:58.407Z,12.90
2018-07-23T17:43:25.723Z,11.20
2018-07-23T17:45:53.138Z,13.43
2018-07-23T17:48:20.547Z,12.87
2018-07-23T17:50:47.940Z,12.10
2018-07-23T17:53:15.275Z,11.83
2018-07-23T17:55:42.588Z,10.93
2018-07-23T17:58:10.019Z,11.47
2018-07-23T18:00:37.584Z,11.33
2018-07-23T18:03:05.318Z,11.60
2018-07-23T18:05:32.768Z,14.00
2018-07-23T18:08:00.061Z,11.40
2018-07-23T18:10:27.384Z,11.00
2018-07-23T18:12:54.731Z,12.00
2018-07-23T18:15:22.121Z,11.53
2018-07-23T18:17:49.455Z,11.33
2018-07-23T18:20:16.817Z,12.30
2018-07-23T18:22:44.231Z,11.57
2018-07-23T18:25:11.810Z,12.03
2018-07-23T18:27:39.185Z,11.03
2018-07-23T18:30:06.965Z,11.60
2018-07-23T18:32:34.337Z,11.70
2018-07-23T18:35:01.667Z,12.87
2018-07-23T18:37:29.078Z,11.00
2018-07-23T18:39:56.426Z,10.93
2018-07-23T18:42:23.757Z,13.37
2018-07-23T18:44:51.143Z,13.20
2018-07-23T18:47:18.540Z,11.47
2018-07-23T18:49:49.893Z,11.97
2018-07-23T18:52:18.104Z,12.53
2018-07-23T18:54:46.936Z,12.97
2018-07-23T18:57:14.448Z,12.80
2018-07-23T18:59:41.832Z,13.33
2018-07-23T19:02:10.196Z,13.40
2018-07-23T19:04:37.702Z,18.23
2018-07-23T19:07:05.591Z,14.90
2018-07-23T19:09:32.935Z,14.40
2018-07-23T19:12:00.786Z,13.77
2018-07-23T19:14:28.188Z,14.80
2018-07-23T19:16:56.514Z,14.10
2018-07-23T19:19:23.883Z,14.50
2018-07-23T19:21:51.230Z,15.10
2018-07-23T19:24:18.703Z,15.13
2018-07-23T19:26:46.123Z,15.20
2018-07-23T19:29:13.783Z,17.33
2018-07-23T19:31:41.153Z,17.23
2018-07-23T19:34:08.530Z,17.13
2018-07-23T19:36:35.960Z,17.07
2018-07-23T19:39:04.774Z,18.17
2018-07-23T19:41:32.161Z,17.27
2018-07-23T19:43:59.532Z,16.60
2018-07-23T19:46:26.983Z,17.60
2018-07-23T19:48:54.293Z,16.90
2018-07-23T19:51:21.674Z,18.57
2018-07-23T19:53:49.020Z,17.93
2018-07-23T19:56:16.493Z,18.23
2018-07-23T19:58:43.963Z,18.03
2018-07-23T20:01:11.470Z,18.40
2018-07-23T20:03:38.845Z,17.37
2018-07-23T20:06:06.195Z,17.30
2018-07-23T20:08:33.548Z,16.63
2018-07-23T20:11:00.912Z,17.90
2018-07-23T20:13:28.368Z,17.17
2018-07-23T20:15:56.617Z,17.53
2018-07-23T20:18:23.990Z,17.03
2018-07-23T20:20:51.401Z,17.97
2018-07-23T20:23:18.756Z,18.03
2018-07-23T20:25:46.219Z,17.63
2018-07-23T20:28:13.631Z,17.70
2018-07-23T20:30:41.005Z,17.20
2018-07-23T20:33:08.521Z,17.17
2018-07-23T20:35:35.999Z,17.13
2018-07-23T20:38:03.442Z,18.00
2018-07-23T20:40:31.343Z,18.87
2018-07-23T20:42:58.831Z,19.33
2018-07-23T20:45:26.695Z,18.00
2018-07-23T20:47:54.143Z,16.97
2018-07-23T20:50:21.584Z,17.33
2018-07-23T20:52:49.528Z,17.90
2018-07-23T20:55:16.859Z,17.63
2018-07-23T20:57:44.280Z,18.03
2018-07-23T21:00:11.606Z,18.63
2018-07-23T21:02:39.009Z,17.20
2018-07-23T21:05:06.575Z,18.50
2018-07-23T21:07:34.027Z,18.57
2018-07-23T21:10:01.732Z,18.23
2018-07-23T21:12:29.436Z,17.97
2018-07-23T21:14:57.683Z,18.03
2018-07-23T21:17:25.331Z,17.70
2018-07-23T21:19:53.156Z,18.83
2018-07-23T21:22:20.780Z,18.07
2018-07-23T21:24:48.508Z,18.50
2018-07-23T21:27:15.858Z,16.60
2018-07-23T21:29:43.240Z,18.60
2018-07-23T21:32:10.802Z,18.23
2018-07-23T21:34:38.338Z,18.40
2018-07-23T21:37:05.861Z,17.97
2018-07-23T21:39:33.185Z,18.67
2018-07-23T21:42:00.588Z,17.50
2018-07-23T21:44:27.996Z,18.90
2018-07-23T21:46:55.572Z,19.27
2018-07-23T21:49:22.941Z,17.83
2018-07-23T21:51:51.107Z,18.20
2018-07-23T21:54:18.506Z,18.67
2018-07-23T21:56:45.979Z,18.77
2018-07-23T21:59:13.405Z,19.70
2018-07-23T22:01:40.772Z,19.07
2018-07-23T22:04:08.083Z,19.13
2018-07-23T22:06:35.428Z,19.50
2018-07-23T22:09:03.165Z,19.30
2018-07-23T22:11:30.656Z,21.10
2018-07-23T22:13:57.986Z,19.47
2018-07-23T22:16:26.410Z,20.60
2018-07-23T22:18:53.735Z,20.57
2018-07-23T22:21:21.504Z,20.80
2018-07-23T22:23:48.906Z,20.43
2018-07-23T22:26:16.417Z,20.23
2018-07-23T22:28:43.797Z,19.60
2018-07-23T22:31:11.143Z,20.53
2018-07-23T22:33:38.443Z,21.53
2018-07-23T22:36:05.893Z,20.77
2018-07-23T22:38:33.239Z,22.37
2018-07-23T22:41:00.609Z,22.17
2018-07-23T22:43:27.955Z,22.00
2018-07-23T22:45:55.355Z,23.70
2018-07-23T22:48:22.789Z,23.60
2018-07-23T22:50:50.215Z,23.43
2018-07-23T22:53:17.545Z,24.40
2018-07-23T22:55:45.248Z,24.70
2018-07-23T22:58:12.585Z,23.30
2018-07-23T23:00:39.894Z,26.10
2018-07-23T23:03:07.297Z,25.03
2018-07-23T23:05:34.665Z,26.27
2018-07-23T23:08:02.014Z,26.43
2018-07-23T23:10:29.321Z,25.70
2018-07-23T23:12:56.656Z,27.73
2018-07-23T23:15:23.990Z,27.67
2018-07-23T23:17:51.383Z,25.67
2018-07-23T23:20:18.712Z,26.23
2018-07-23T23:22:46.070Z,24.03
2018-07-23T23:25:13.457Z,26.10
2018-07-23T23:27:40.810Z,26.83
2018-07-23T23:30:08.194Z,25.97
2018-07-23T23:32:35.521Z,26.13
2018-07-23T23:35:02.958Z,25.53
2018-07-23T23:37:30.400Z,25.97
2018-07-23T23:39:57.935Z,24.90
2018-07-23T23:42:25.280Z,25.73
2018-07-23T23:44:52.619Z,25.63
2018-07-23T23:47:20.075Z,25.37
2018-07-23T23:49:47.429Z,25.83
2018-07-23T23:52:14.844Z,23.37
2018-07-23T23:54:42.549Z,24.70
2018-07-23T23:57:09.890Z,24.40
2018-07-23T23:59:37.206Z,25.87
